Time;durP1;ratioP1;P1;durP2;ratioP2;P2;SDS_P1;SDS_P2;PMS_P1;PMS_P2;Temp;Humidity;BMP_temperature;BMP_pressure;BME280_temperature;BME280_humidity;BME280_pressure;Samples;Min_cycle;Max_cycle;Signal;HPM_P1;HPM_P2
2022/12/27 00:03:57;;;;;;;;;;;21.30;43.60;;;;;;8329053;28;20004;-43
2022/12/27 00:07:57;;;;;;;;;;;21.30;43.80;;;;;;8328750;28;19960;-44
2022/12/27 00:11:58;;;;;;;;;;;21.30;43.80;;;;;;8332984;28;19924;-45
2022/12/27 00:16:06;;;;;;;;;;;21.30;43.70;;;;;;8335123;28;19987;-43
2022/12/27 00:20:07;;;;;;;;;;;21.20;43.70;;;;;;8334734;28;19951;-44
2022/12/27 00:24:08;;;;;;;;;;;21.20;43.70;;;;;;8334742;28;19980;-48
2022/12/27 00:28:09;;;;;;;;;;;21.20;43.60;;;;;;8333267;28;19920;-44
2022/12/27 00:32:09;;;;;;;;;;;21.20;43.70;;;;;;8333875;28;20267;-45
2022/12/27 00:36:11;;;;;;;;;;;21.20;43.60;;;;;;8334214;28;19913;-44
2022/12/27 00:40:12;;;;;;;;;;;21.20;43.60;;;;;;8334585;28;20013;-45
2022/12/27 00:44:12;;;;;;;;;;;21.20;43.60;;;;;;8333500;28;19929;-45
2022/12/27 00:48:12;;;;;;;;;;;21.20;43.70;;;;;;8333863;28;19940;-46
2022/12/27 00:52:13;;;;;;;;;;;21.10;43.60;;;;;;8333353;28;19925;-44
2022/12/27 00:56:15;;;;;;;;;;;21.10;43.50;;;;;;8333212;28;19918;-45
2022/12/27 01:00:15;;;;;;;;;;;21.20;43.50;;;;;;8333870;28;20001;-43
2022/12/27 01:04:16;;;;;;;;;;;21.10;43.50;;;;;;8333393;28;19925;-43
2022/12/27 01:08:16;;;;;;;;;;;21.10;43.50;;;;;;8333125;28;19917;-45
2022/12/27 01:12:17;;;;;;;;;;;21.10;43.50;;;;;;8332211;28;19917;-45
2022/12/27 01:16:22;;;;;;;;;;;21.10;44.10;;;;;;8332610;28;19957;-43
2022/12/27 01:20:22;;;;;;;;;;;21.10;43.50;;;;;;8330225;28;19913;-47
2022/12/27 01:24:22;;;;;;;;;;;21.10;43.50;;;;;;8327386;28;19925;-44
2022/12/27 01:28:23;;;;;;;;;;;21.00;43.50;;;;;;8331170;28;20441;-44
2022/12/27 01:32:23;;;;;;;;;;;21.00;43.60;;;;;;8331619;28;19917;-45
2022/12/27 01:36:24;;;;;;;;;;;20.90;43.50;;;;;;8332849;28;19921;-44
2022/12/27 01:40:25;;;;;;;;;;;20.90;43.60;;;;;;8332568;28;19913;-44
2022/12/27 01:48:38;;;;;;;;;;;20.80;43.60;;;;;;8332639;28;19924;-44
2022/12/27 01:52:41;;;;;;;;;;;20.80;43.60;;;;;;8332254;28;19943;-44
2022/12/27 01:56:42;;;;;;;;;;;20.80;43.60;;;;;;8332150;28;19913;-44
2022/12/27 02:00:43;;;;;;;;;;;20.80;43.60;;;;;;8332413;28;19917;-44
2022/12/27 02:04:44;;;;;;;;;;;20.70;43.50;;;;;;8306880;28;19980;-43
2022/12/27 02:09:01;;;;;;;;;;;20.70;43.60;;;;;;8319932;28;19936;-43
2022/12/27 02:13:02;;;;;;;;;;;20.60;43.50;;;;;;8331646;28;19963;-43
2022/12/27 02:17:04;;;;;;;;;;;20.60;43.50;;;;;;8331048;28;20278;-43
2022/12/27 02:21:20;;;;;;;;;;;20.60;43.40;;;;;;8331680;28;19967;-45
2022/12/27 02:25:29;;;;;;;;;;;20.60;43.50;;;;;;8330901;28;19925;-43
2022/12/27 02:29:39;;;;;;;;;;;20.50;43.50;;;;;;8331569;28;20402;-44
2022/12/27 02:33:42;;;;;;;;;;;20.50;43.40;;;;;;8330537;28;19913;-43
2022/12/27 02:38:09;;;;;;;;;;;20.50;43.90;;;;;;8330552;28;19917;-43
2022/12/27 02:55:19;;;;;;;;;;;20.50;43.30;;;;;;8332954;28;19956;-44
2022/12/27 02:59:34;;;;;;;;;;;20.40;43.20;;;;;;8330159;28;19925;-43
2022/12/27 03:03:38;;;;;;;;;;;20.40;43.20;;;;;;8330447;28;20455;-43
2022/12/27 03:07:39;;;;;;;;;;;20.40;43.30;;;;;;8329805;28;19971;-42
2022/12/27 03:16:05;;;;;;;;;;;20.30;43.20;;;;;;8333548;28;20000;-42
2022/12/27 03:33:12;;;;;;;;;;;20.30;43.10;;;;;;8332673;28;19939;-43
2022/12/27 03:50:35;;;;;;;;;;;20.20;43.10;;;;;;8335876;28;19924;-43
2022/12/27 03:54:37;;;;;;;;;;;20.20;43.10;;;;;;8336094;28;20394;-43
2022/12/27 03:58:38;;;;;;;;;;;20.20;43.20;;;;;;8335439;28;20463;-43
2022/12/27 04:02:38;;;;;;;;;;;20.10;43.00;;;;;;8335675;28;19917;-43
2022/12/27 04:06:39;;;;;;;;;;;20.10;43.00;;;;;;8335793;28;19921;-43
2022/12/27 04:36:33;;;;;;;;;;;20.20;43.00;;;;;;8335033;28;19940;-43
2022/12/27 04:57:55;;;;;;;;;;;20.40;42.70;;;;;;8333134;28;19923;-43
2022/12/27 05:02:03;;;;;;;;;;;20.40;42.70;;;;;;8332907;28;21290;-42
2022/12/27 05:06:04;;;;;;;;;;;20.40;42.60;;;;;;8333822;28;20012;-43
2022/12/27 05:14:24;;;;;;;;;;;20.50;42.60;;;;;;8333347;28;19924;-43
2022/12/27 05:18:25;;;;;;;;;;;20.50;42.60;;;;;;8333405;28;20357;-42
2022/12/27 05:26:44;;;;;;;;;;;20.60;42.50;;;;;;8338810;28;19932;-44
2022/12/27 05:30:45;;;;;;;;;;;20.60;42.50;;;;;;8333072;28;19921;-43
2022/12/27 05:34:45;;;;;;;;;;;20.60;42.40;;;;;;8332564;28;19921;-43
2022/12/27 05:38:46;;;;;;;;;;;20.70;42.40;;;;;;8332753;28;19917;-43
2022/12/27 05:42:46;;;;;;;;;;;20.70;42.40;;;;;;8332630;28;19913;-43
2022/12/27 05:46:46;;;;;;;;;;;20.70;42.40;;;;;;8332434;28;19921;-43
2022/12/27 05:50:47;;;;;;;;;;;20.70;42.30;;;;;;8332377;28;19928;-43
2022/12/27 05:54:48;;;;;;;;;;;20.70;42.30;;;;;;8332417;28;19917;-43
2022/12/27 05:58:51;;;;;;;;;;;20.80;42.30;;;;;;8332163;28;20374;-43
2022/12/27 06:02:51;;;;;;;;;;;20.70;42.20;;;;;;8332001;28;19971;-42
2022/12/27 06:06:52;;;;;;;;;;;20.80;42.30;;;;;;8332222;28;19921;-42
2022/12/27 06:11:00;;;;;;;;;;;20.80;42.20;;;;;;8332165;28;19917;-42
2022/12/27 06:15:00;;;;;;;;;;;20.80;42.20;;;;;;8332616;28;20023;-42
2022/12/27 06:19:01;;;;;;;;;;;20.90;42.10;;;;;;8333466;28;19925;-42
2022/12/27 06:23:01;;;;;;;;;;;20.90;42.10;;;;;;8333327;28;20306;-42
2022/12/27 06:27:01;;;;;;;;;;;20.90;42.10;;;;;;8333315;28;19925;-42
2022/12/27 06:31:02;;;;;;;;;;;20.90;42.10;;;;;;8332569;28;20012;-43
2022/12/27 06:35:03;;;;;;;;;;;20.90;42.10;;;;;;8331929;28;19917;-43
2022/12/27 06:39:04;;;;;;;;;;;20.90;42.00;;;;;;8331069;28;19917;-42
2022/12/27 06:43:04;;;;;;;;;;;20.90;42.00;;;;;;8330945;28;19914;-42
2022/12/27 06:47:05;;;;;;;;;;;20.90;42.00;;;;;;8330350;28;19976;-42
2022/12/27 06:51:06;;;;;;;;;;;21.00;42.00;;;;;;8330467;28;19921;-43
2022/12/27 06:55:07;;;;;;;;;;;21.00;41.90;;;;;;8330624;28;19944;-42
2022/12/27 06:59:07;;;;;;;;;;;21.00;41.90;;;;;;8329942;28;19924;-42
2022/12/27 07:03:07;;;;;;;;;;;21.00;41.90;;;;;;8330477;28;19943;-43
2022/12/27 07:07:08;;;;;;;;;;;21.00;41.90;;;;;;8330483;28;20027;-44
2022/12/27 07:11:10;;;;;;;;;;;21.10;41.90;;;;;;8329784;28;20393;-45
2022/12/27 07:15:10;;;;;;;;;;;21.00;41.90;;;;;;8330069;28;19925;-43
2022/12/27 07:19:11;;;;;;;;;;;21.10;41.90;;;;;;8329741;28;19921;-45
2022/12/27 07:23:13;;;;;;;;;;;21.10;41.90;;;;;;8329618;28;19952;-43
2022/12/27 07:27:14;;;;;;;;;;;21.10;41.80;;;;;;8330029;28;19928;-45
2022/12/27 07:31:15;;;;;;;;;;;21.10;41.90;;;;;;8329923;28;19960;-43
2022/12/27 07:35:16;;;;;;;;;;;21.10;41.70;;;;;;8329372;28;20302;-44
2022/12/27 07:39:16;;;;;;;;;;;21.20;41.70;;;;;;8329882;28;19924;-44
2022/12/27 07:43:17;;;;;;;;;;;21.20;41.70;;;;;;8329346;28;19914;-43
2022/12/27 07:47:17;;;;;;;;;;;21.20;41.60;;;;;;8329812;28;19995;-44
2022/12/27 07:51:18;;;;;;;;;;;21.20;41.70;;;;;;8329803;28;19929;-44
2022/12/27 07:55:18;;;;;;;;;;;21.20;41.70;;;;;;8329207;28;20004;-43
2022/12/27 07:59:18;;;;;;;;;;;21.20;41.70;;;;;;8329614;28;19925;-43
2022/12/27 08:03:19;;;;;;;;;;;21.20;41.60;;;;;;8329545;28;20374;-44
2022/12/27 08:07:19;;;;;;;;;;;21.20;41.70;;;;;;8328838;28;19921;-43
2022/12/27 08:11:20;;;;;;;;;;;21.20;41.60;;;;;;8328328;28;19940;-44
2022/12/27 08:15:20;;;;;;;;;;;21.20;41.60;;;;;;8329682;28;20004;-45
2022/12/27 08:19:21;;;;;;;;;;;21.20;41.50;;;;;;8328978;28;19927;-46
2022/12/27 08:23:21;;;;;;;;;;;21.20;41.50;;;;;;8329341;28;19971;-44
2022/12/27 08:27:23;;;;;;;;;;;21.20;41.50;;;;;;8329144;28;19986;-44
2022/12/27 08:31:23;;;;;;;;;;;21.20;41.60;;;;;;8328913;28;19917;-44
2022/12/27 08:35:24;;;;;;;;;;;21.20;41.60;;;;;;8334677;28;19924;-45
2022/12/27 08:39:26;;;;;;;;;;;21.30;41.50;;;;;;8334626;28;19917;-44
2022/12/27 08:43:28;;;;;;;;;;;21.30;41.60;;;;;;8334082;28;19913;-45
2022/12/27 08:47:29;;;;;;;;;;;21.30;41.50;;;;;;8334434;28;19917;-43
2022/12/27 08:51:29;;;;;;;;;;;21.30;41.50;;;;;;8334130;28;20020;-44
2022/12/27 08:55:30;;;;;;;;;;;21.30;41.50;;;;;;8333569;28;20363;-44
2022/12/27 08:59:31;;;;;;;;;;;21.30;41.40;;;;;;8333994;28;20287;-44
2022/12/27 09:03:31;;;;;;;;;;;21.30;41.40;;;;;;8334061;28;20439;-45
2022/12/27 09:07:31;;;;;;;;;;;21.30;41.40;;;;;;8333227;28;19984;-44
2022/12/27 09:11:33;;;;;;;;;;;21.40;41.50;;;;;;8333508;28;19947;-44
2022/12/27 09:15:33;;;;;;;;;;;21.30;41.40;;;;;;8333696;28;20019;-44
2022/12/27 09:19:35;;;;;;;;;;;21.40;41.40;;;;;;8332939;28;19917;-46
2022/12/27 09:23:36;;;;;;;;;;;21.40;41.40;;;;;;8333433;28;19928;-43
2022/12/27 09:27:36;;;;;;;;;;;21.30;41.40;;;;;;8333099;28;20266;-44
2022/12/27 09:31:37;;;;;;;;;;;21.40;41.40;;;;;;8332657;28;19917;-44
2022/12/27 09:35:38;;;;;;;;;;;21.40;41.30;;;;;;8332936;28;19947;-44
2022/12/27 09:39:38;;;;;;;;;;;21.40;41.30;;;;;;8332843;28;20331;-43
2022/12/27 09:43:42;;;;;;;;;;;21.40;41.30;;;;;;8331702;28;19921;-43
2022/12/27 09:47:46;;;;;;;;;;;21.50;41.20;;;;;;8332613;28;19917;-43
2022/12/27 09:52:13;;;;;;;;;;;21.50;41.30;;;;;;8332421;28;20313;-45
2022/12/27 09:56:19;;;;;;;;;;;21.50;41.20;;;;;;8330446;28;20400;-43
2022/12/27 10:00:23;;;;;;;;;;;21.50;41.20;;;;;;8332120;28;19921;-43
2022/12/27 10:04:23;;;;;;;;;;;21.50;41.20;;;;;;8331478;28;19971;-43
2022/12/27 10:08:27;;;;;;;;;;;21.50;41.10;;;;;;8331734;28;19917;-44
2022/12/27 10:12:39;;;;;;;;;;;21.50;41.10;;;;;;8331461;28;19917;-42
2022/12/27 10:16:48;;;;;;;;;;;21.60;41.10;;;;;;8331025;28;19917;-43
2022/12/27 10:20:58;;;;;;;;;;;21.60;41.10;;;;;;8331450;28;19918;-42
2022/12/27 10:25:01;;;;;;;;;;;21.60;41.00;;;;;;8331107;28;19925;-44
2022/12/27 10:29:09;;;;;;;;;;;21.60;41.00;;;;;;8330816;28;19913;-43
2022/12/27 10:33:29;;;;;;;;;;;21.60;41.00;;;;;;8331239;28;19921;-43
2022/12/27 10:37:29;;;;;;;;;;;21.60;41.00;;;;;;8330463;28;19917;-44
2022/12/27 10:41:53;;;;;;;;;;;21.60;41.00;;;;;;8330597;28;19971;-43
2022/12/27 10:45:53;;;;;;;;;;;21.60;40.90;;;;;;8330529;28;20382;-43
2022/12/27 10:50:03;;;;;;;;;;;21.60;40.90;;;;;;8330573;28;19963;-43
2022/12/27 10:54:10;;;;;;;;;;;21.60;40.90;;;;;;8330343;28;19990;-43
2022/12/27 10:58:36;;;;;;;;;;;21.60;40.80;;;;;;8330308;28;19924;-42
2022/12/27 11:02:47;;;;;;;;;;;21.60;40.70;;;;;;8329798;28;19939;-43
2022/12/27 11:06:50;;;;;;;;;;;21.60;40.70;;;;;;8329485;28;19925;-43
2022/12/27 11:11:10;;;;;;;;;;;21.70;40.70;;;;;;8329730;28;19921;-44
2022/12/27 11:15:12;;;;;;;;;;;21.70;40.80;;;;;;8330016;28;19919;-44
2022/12/27 11:19:31;;;;;;;;;;;21.70;40.70;;;;;;8330299;28;19957;-44
2022/12/27 11:23:35;;;;;;;;;;;21.60;40.70;;;;;;8329656;28;19918;-44
2022/12/27 11:27:36;;;;;;;;;;;21.70;40.70;;;;;;8330143;28;20021;-46
2022/12/27 11:31:38;;;;;;;;;;;21.70;40.70;;;;;;8329419;28;19929;-44
2022/12/27 11:35:45;;;;;;;;;;;21.70;40.80;;;;;;8329716;28;19919;-45
2022/12/27 11:39:47;;;;;;;;;;;21.70;40.70;;;;;;8330198;28;19932;-45
2022/12/27 11:43:49;;;;;;;;;;;21.70;40.70;;;;;;8329241;28;19947;-44
2022/12/27 11:48:01;;;;;;;;;;;21.70;40.70;;;;;;8329475;28;19928;-45
2022/12/27 11:52:01;;;;;;;;;;;21.80;41.20;;;;;;8329825;28;19928;-44
2022/12/27 11:56:21;;;;;;;;;;;21.80;40.70;;;;;;8328947;28;20275;-43
2022/12/27 12:00:22;;;;;;;;;;;21.80;40.70;;;;;;8329330;28;19917;-43
2022/12/27 12:04:41;;;;;;;;;;;21.80;40.70;;;;;;8329191;28;19975;-44
2022/12/27 12:08:48;;;;;;;;;;;21.80;40.70;;;;;;8335032;28;20322;-43
2022/12/27 12:13:07;;;;;;;;;;;21.80;40.70;;;;;;8335485;28;19921;-44
2022/12/27 12:17:16;;;;;;;;;;;21.80;40.60;;;;;;8334941;28;19917;-44
2022/12/27 12:21:24;;;;;;;;;;;21.80;40.60;;;;;;8335504;28;19917;-44
2022/12/27 12:25:30;;;;;;;;;;;21.80;40.60;;;;;;8334730;28;20321;-43
2022/12/27 12:29:53;;;;;;;;;;;21.80;40.50;;;;;;8335595;28;19996;-44
2022/12/27 12:34:13;;;;;;;;;;;21.90;40.50;;;;;;8336023;28;19917;-44
2022/12/27 12:38:14;;;;;;;;;;;21.90;40.50;;;;;;8334153;28;19917;-44
2022/12/27 12:42:20;;;;;;;;;;;21.90;40.50;;;;;;8334537;28;19992;-44
2022/12/27 12:46:27;;;;;;;;;;;21.90;40.60;;;;;;8334169;28;20305;-43
2022/12/27 12:50:46;;;;;;;;;;;21.90;40.50;;;;;;8334881;28;19957;-45
2022/12/27 12:54:56;;;;;;;;;;;21.90;40.50;;;;;;8334468;28;19917;-44
2022/12/27 12:59:11;;;;;;;;;;;21.90;40.50;;;;;;8333797;28;20401;-43
2022/12/27 13:03:20;;;;;;;;;;;21.90;40.50;;;;;;8334098;28;19917;-44
2022/12/27 13:07:39;;;;;;;;;;;21.90;40.50;;;;;;8333271;28;19925;-45
2022/12/27 13:11:58;;;;;;;;;;;21.90;40.40;;;;;;8333897;28;19944;-43
2022/12/27 13:16:10;;;;;;;;;;;21.80;40.30;;;;;;8333655;28;19917;-45
2022/12/27 13:20:22;;;;;;;;;;;21.90;40.40;;;;;;8332532;28;19914;-44
2022/12/27 13:24:33;;;;;;;;;;;21.90;40.40;;;;;;8333397;28;19936;-44
2022/12/27 13:28:37;;;;;;;;;;;21.90;40.40;;;;;;8332736;28;19925;-43
2022/12/27 13:32:38;;;;;;;;;;;21.90;40.40;;;;;;8333398;28;19957;-44
2022/12/27 13:36:44;;;;;;;;;;;21.90;40.40;;;;;;8332776;28;20281;-44
2022/12/27 13:40:45;;;;;;;;;;;21.90;40.40;;;;;;8332553;28;19927;-43
2022/12/27 13:44:45;;;;;;;;;;;21.90;40.40;;;;;;8332597;28;20371;-45
2022/12/27 13:48:59;;;;;;;;;;;21.90;40.40;;;;;;8332784;28;19924;-44
2022/12/27 13:53:31;;;;;;;;;;;21.90;40.30;;;;;;8332453;28;19983;-43
2022/12/27 13:57:35;;;;;;;;;;;21.90;40.30;;;;;;8320122;28;19913;-44
2022/12/27 14:01:56;;;;;;;;;;;21.90;40.30;;;;;;8331683;28;19917;-44
2022/12/27 14:06:15;;;;;;;;;;;21.90;40.30;;;;;;8332237;28;19925;-44
2022/12/27 14:10:18;;;;;;;;;;;21.90;40.30;;;;;;8330837;28;20259;-44
2022/12/27 14:14:20;;;;;;;;;;;21.90;40.40;;;;;;8331397;28;19945;-45
2022/12/27 14:18:34;;;;;;;;;;;21.90;40.30;;;;;;8331532;28;19924;-44
2022/12/27 14:22:40;;;;;;;;;;;21.90;40.30;;;;;;8331154;28;20374;-45
2022/12/27 14:26:53;;;;;;;;;;;21.90;40.30;;;;;;8331634;28;20122;-42
2022/12/27 14:30:59;;;;;;;;;;;21.90;40.30;;;;;;8331380;28;19959;-43
2022/12/27 14:35:15;;;;;;;;;;;21.90;40.30;;;;;;8330814;28;19917;-43
2022/12/27 14:39:34;;;;;;;;;;;22.00;40.30;;;;;;8330868;28;19917;-43
2022/12/27 14:43:52;;;;;;;;;;;22.00;40.30;;;;;;8330408;28;19917;-43
2022/12/27 14:48:11;;;;;;;;;;;21.90;40.30;;;;;;8330937;28;20354;-43
2022/12/27 14:52:32;;;;;;;;;;;22.00;40.30;;;;;;8330566;28;19971;-43
2022/12/27 14:56:41;;;;;;;;;;;21.90;40.30;;;;;;8330489;28;19924;-44
2022/12/27 15:00:48;;;;;;;;;;;22.00;40.30;;;;;;8330478;28;19913;-42
2022/12/27 15:04:53;;;;;;;;;;;21.90;40.30;;;;;;8329544;28;19925;-44
2022/12/27 15:08:54;;;;;;;;;;;22.00;40.30;;;;;;8330499;28;19917;-43
2022/12/27 15:12:57;;;;;;;;;;;22.00;40.30;;;;;;8330028;28;19925;-43
2022/12/27 15:17:12;;;;;;;;;;;22.00;40.30;;;;;;8329543;28;19917;-43
2022/12/27 15:21:23;;;;;;;;;;;22.00;40.20;;;;;;8330327;28;20446;-43
2022/12/27 15:25:42;;;;;;;;;;;22.00;40.20;;;;;;8329501;28;19936;-43
2022/12/27 15:30:09;;;;;;;;;;;22.00;40.30;;;;;;8330147;28;20448;-44
2022/12/27 15:34:22;;;;;;;;;;;22.00;40.30;;;;;;8299197;28;19925;-43
2022/12/27 15:38:25;;;;;;;;;;;22.00;40.30;;;;;;8329463;28;19925;-43
2022/12/27 15:42:42;;;;;;;;;;;22.00;40.20;;;;;;8333497;28;19917;-44
2022/12/27 15:47:03;;;;;;;;;;;22.00;40.30;;;;;;8336008;28;19925;-43
2022/12/27 15:51:22;;;;;;;;;;;22.00;40.30;;;;;;8336510;28;19944;-44
2022/12/27 15:55:41;;;;;;;;;;;22.00;40.20;;;;;;8335634;28;20027;-43
2022/12/27 15:59:44;;;;;;;;;;;22.00;40.20;;;;;;8335796;28;20397;-44
2022/12/27 16:03:46;;;;;;;;;;;22.00;40.10;;;;;;8335747;28;20375;-43
2022/12/27 16:07:58;;;;;;;;;;;22.00;40.20;;;;;;8335200;28;19924;-43
2022/12/27 16:12:01;;;;;;;;;;;22.00;40.20;;;;;;8335510;28;19916;-43
2022/12/27 16:16:02;;;;;;;;;;;22.00;40.20;;;;;;8335797;28;19960;-43
2022/12/27 16:20:11;;;;;;;;;;;22.00;40.20;;;;;;8335047;28;19940;-44
2022/12/27 16:24:14;;;;;;;;;;;22.00;40.20;;;;;;8335364;28;19925;-44
2022/12/27 16:28:14;;;;;;;;;;;22.00;40.20;;;;;;8335116;28;20367;-44
2022/12/27 16:32:17;;;;;;;;;;;22.00;40.20;;;;;;8334460;28;19913;-44
2022/12/27 16:36:17;;;;;;;;;;;22.00;40.20;;;;;;8335220;28;20362;-44
2022/12/27 16:40:36;;;;;;;;;;;22.00;40.10;;;;;;8334314;28;19962;-43
2022/12/27 16:44:40;;;;;;;;;;;22.00;40.10;;;;;;8334594;28;19925;-43
2022/12/27 16:48:53;;;;;;;;;;;22.00;40.10;;;;;;8334471;28;19917;-43
2022/12/27 16:53:13;;;;;;;;;;;22.00;40.10;;;;;;8332789;28;19921;-43
2022/12/27 16:57:40;;;;;;;;;;;22.00;40.10;;;;;;8334234;28;19972;-43
2022/12/27 17:01:40;;;;;;;;;;;22.00;40.10;;;;;;8330128;28;19917;-43
2022/12/27 17:05:42;;;;;;;;;;;22.00;40.20;;;;;;8320309;28;19926;-43
2022/12/27 17:09:43;;;;;;;;;;;22.00;40.10;;;;;;8321399;28;20440;-43
2022/12/27 17:13:53;;;;;;;;;;;22.00;40.10;;;;;;8333365;28;20008;-43
2022/12/27 17:17:57;;;;;;;;;;;22.00;40.10;;;;;;8333894;28;19920;-43
2022/12/27 17:22:00;;;;;;;;;;;22.00;40.00;;;;;;8333685;28;20424;-44
2022/12/27 17:26:09;;;;;;;;;;;22.00;40.00;;;;;;8332865;28;19932;-43
2022/12/27 17:30:20;;;;;;;;;;;22.00;40.00;;;;;;8333416;28;20290;-43
2022/12/27 17:34:30;;;;;;;;;;;22.00;40.00;;;;;;8332833;28;19995;-44
2022/12/27 17:38:40;;;;;;;;;;;22.00;40.10;;;;;;8333310;28;20007;-43
2022/12/27 17:47:12;;;;;;;;;;;22.00;40.00;;;;;;8332350;28;19932;-43
2022/12/27 17:51:16;;;;;;;;;;;22.00;40.00;;;;;;8332313;28;19921;-43
2022/12/27 17:59:40;;;;;;;;;;;22.10;40.00;;;;;;8332650;28;19924;-43
2022/12/27 18:03:43;;;;;;;;;;;22.10;40.00;;;;;;8331733;28;20307;-43
2022/12/27 18:07:43;;;;;;;;;;;22.00;39.90;;;;;;8331561;28;19963;-44
2022/12/27 18:11:44;;;;;;;;;;;22.00;39.90;;;;;;8332337;28;20050;-43
2022/12/27 18:15:46;;;;;;;;;;;22.10;39.90;;;;;;8331719;28;19924;-43
2022/12/27 18:19:46;;;;;;;;;;;22.10;39.90;;;;;;8331329;28;20271;-43
2022/12/27 18:23:51;;;;;;;;;;;22.10;39.90;;;;;;8331805;28;19917;-43
2022/12/27 18:27:57;;;;;;;;;;;22.10;39.90;;;;;;8331389;28;19913;-43
2022/12/27 18:32:01;;;;;;;;;;;22.10;39.90;;;;;;8331188;28;20421;-43
2022/12/27 18:36:03;;;;;;;;;;;22.10;39.80;;;;;;8331429;28;19917;-43
2022/12/27 18:40:03;;;;;;;;;;;22.10;39.80;;;;;;8331236;28;19965;-43
2022/12/27 18:44:11;;;;;;;;;;;22.10;39.80;;;;;;8330425;28;19933;-43
2022/12/27 18:48:11;;;;;;;;;;;22.10;40.20;;;;;;8330907;28;19966;-44
2022/12/27 18:52:13;;;;;;;;;;;22.10;39.70;;;;;;8331164;28;19921;-43
2022/12/27 18:56:14;;;;;;;;;;;22.10;39.70;;;;;;8330032;28;19964;-43
2022/12/27 19:00:23;;;;;;;;;;;22.10;39.70;;;;;;8330709;28;19918;-43
2022/12/27 19:04:28;;;;;;;;;;;22.10;39.70;;;;;;8330086;28;19925;-44
2022/12/27 19:08:33;;;;;;;;;;;22.10;39.70;;;;;;8330550;28;20282;-44
2022/12/27 19:12:37;;;;;;;;;;;22.10;39.70;;;;;;8330716;28;19917;-44
2022/12/27 19:16:38;;;;;;;;;;;22.10;39.60;;;;;;8329277;28;19924;-43
2022/12/27 19:20:39;;;;;;;;;;;22.10;39.60;;;;;;8330124;28;19917;-43
2022/12/27 19:24:39;;;;;;;;;;;22.10;39.60;;;;;;8330005;28;19929;-44
2022/12/27 19:28:41;;;;;;;;;;;22.10;39.50;;;;;;8329450;28;19967;-43
2022/12/27 19:32:41;;;;;;;;;;;22.10;39.50;;;;;;8329994;28;19941;-43
2022/12/27 19:36:43;;;;;;;;;;;22.10;40.00;;;;;;8329740;28;20378;-43
2022/12/27 19:40:45;;;;;;;;;;;22.10;39.60;;;;;;8329097;28;19975;-43
2022/12/27 19:44:46;;;;;;;;;;;22.10;39.60;;;;;;8329551;28;19936;-44
2022/12/27 19:48:46;;;;;;;;;;;22.10;39.50;;;;;;8329395;28;19963;-43
2022/12/27 19:52:49;;;;;;;;;;;22.10;39.50;;;;;;8329026;28;20275;-43
2022/12/27 19:56:50;;;;;;;;;;;22.10;39.40;;;;;;8329719;28;20032;-43
2022/12/27 20:00:50;;;;;;;;;;;22.10;39.50;;;;;;8329467;28;19917;-43
2022/12/27 20:04:51;;;;;;;;;;;22.10;39.40;;;;;;8327738;28;19925;-43
2022/12/27 20:08:51;;;;;;;;;;;22.10;40.00;;;;;;8329427;28;19975;-44
2022/12/27 20:12:51;;;;;;;;;;;22.10;39.30;;;;;;8329275;28;19964;-44
2022/12/27 20:16:52;;;;;;;;;;;22.10;39.30;;;;;;8328824;28;20390;-43
2022/12/27 20:20:52;;;;;;;;;;;22.10;39.40;;;;;;8329503;28;20385;-43
2022/12/27 20:24:53;;;;;;;;;;;22.10;39.30;;;;;;8329096;28;19963;-43
2022/12/27 20:28:53;;;;;;;;;;;22.10;39.30;;;;;;8332683;28;20336;-43
2022/12/27 20:32:54;;;;;;;;;;;22.10;39.30;;;;;;8335401;28;19917;-44
2022/12/27 20:36:54;;;;;;;;;;;22.10;39.30;;;;;;8334844;28;19924;-43
2022/12/27 20:40:54;;;;;;;;;;;22.20;39.20;;;;;;8334148;28;19992;-44
2022/12/27 20:44:55;;;;;;;;;;;22.10;39.20;;;;;;8334016;28;20389;-44
2022/12/27 20:48:55;;;;;;;;;;;22.20;39.20;;;;;;8334319;28;20381;-43
2022/12/27 20:52:56;;;;;;;;;;;22.20;39.30;;;;;;8333894;28;19921;-43
2022/12/27 20:56:56;;;;;;;;;;;22.20;39.20;;;;;;8334092;28;20341;-43
2022/12/27 21:00:57;;;;;;;;;;;22.20;39.20;;;;;;8333912;28;20286;-44
2022/12/27 21:04:58;;;;;;;;;;;22.20;39.20;;;;;;8333440;28;19948;-43
2022/12/27 21:08:58;;;;;;;;;;;22.10;39.10;;;;;;8333610;28;20367;-44
2022/12/27 21:12:58;;;;;;;;;;;22.20;39.20;;;;;;8333957;28;19917;-43
2022/12/27 21:16:59;;;;;;;;;;;22.20;39.20;;;;;;8333093;28;19917;-43
2022/12/27 21:21:03;;;;;;;;;;;22.20;39.10;;;;;;8333717;28;20286;-43
2022/12/27 21:25:04;;;;;;;;;;;22.10;39.00;;;;;;8333331;28;19928;-44
2022/12/27 21:29:05;;;;;;;;;;;22.10;39.00;;;;;;8332659;28;19917;-43
2022/12/27 21:33:05;;;;;;;;;;;22.10;39.00;;;;;;8333131;28;19921;-43
2022/12/27 21:37:07;;;;;;;;;;;22.10;39.00;;;;;;8332752;28;20337;-43
2022/12/27 21:41:26;;;;;;;;;;;22.10;39.00;;;;;;8331451;28;19925;-43
2022/12/27 21:45:27;;;;;;;;;;;22.00;39.00;;;;;;8332767;28;19921;-43
2022/12/27 21:49:27;;;;;;;;;;;21.90;38.90;;;;;;8332222;28;19929;-43
2022/12/27 21:53:28;;;;;;;;;;;21.90;38.90;;;;;;8332791;28;20428;-43
2022/12/27 21:57:28;;;;;;;;;;;21.80;38.90;;;;;;8332436;28;19972;-44
2022/12/27 22:01:30;;;;;;;;;;;21.80;38.90;;;;;;8331692;28;19913;-44
2022/12/27 22:05:30;;;;;;;;;;;21.70;39.00;;;;;;8331947;28;19929;-45
2022/12/27 22:09:30;;;;;;;;;;;21.70;39.00;;;;;;8331862;28;20417;-43
2022/12/27 22:13:32;;;;;;;;;;;21.60;39.10;;;;;;8331610;28;20008;-43
2022/12/27 22:17:32;;;;;;;;;;;21.60;39.10;;;;;;8331955;28;20362;-43
2022/12/27 22:21:33;;;;;;;;;;;21.60;39.10;;;;;;8331680;28;19953;-43
2022/12/27 22:25:34;;;;;;;;;;;21.50;39.00;;;;;;8330867;28;19926;-43
2022/12/27 22:29:34;;;;;;;;;;;21.50;39.10;;;;;;8331609;28;20062;-43
2022/12/27 22:33:35;;;;;;;;;;;21.50;39.10;;;;;;8331538;28;20421;-43
2022/12/27 22:37:35;;;;;;;;;;;21.50;39.10;;;;;;8330628;28;19992;-43
2022/12/27 22:41:36;;;;;;;;;;;21.40;39.10;;;;;;8331030;28;19939;-43
2022/12/27 22:45:39;;;;;;;;;;;21.40;39.20;;;;;;8330747;28;19921;-43
2022/12/27 22:49:39;;;;;;;;;;;21.40;39.30;;;;;;8330095;28;19917;-43
2022/12/27 22:53:40;;;;;;;;;;;21.30;39.20;;;;;;8330056;28;20290;-44
2022/12/27 22:57:41;;;;;;;;;;;21.30;39.20;;;;;;8330650;28;20326;-43
2022/12/27 23:01:44;;;;;;;;;;;21.30;39.20;;;;;;8329118;28;20004;-43
2022/12/27 23:05:54;;;;;;;;;;;21.30;39.20;;;;;;8330398;28;19921;-44
2022/12/27 23:09:54;;;;;;;;;;;21.20;39.20;;;;;;8329432;28;19924;-43
2022/12/27 23:13:59;;;;;;;;;;;21.20;39.20;;;;;;8329893;28;19928;-43
2022/12/27 23:17:59;;;;;;;;;;;21.20;39.20;;;;;;8330253;28;19995;-43
2022/12/27 23:22:00;;;;;;;;;;;21.10;39.80;;;;;;8330211;28;19913;-44
2022/12/27 23:26:08;;;;;;;;;;;21.10;39.30;;;;;;8329363;28;19925;-44
2022/12/27 23:30:09;;;;;;;;;;;21.10;39.40;;;;;;8329875;28;20004;-43
2022/12/27 23:34:12;;;;;;;;;;;21.00;39.40;;;;;;8330107;28;19970;-43
2022/12/27 23:38:13;;;;;;;;;;;21.00;39.30;;;;;;8329312;28;19917;-43
2022/12/27 23:42:13;;;;;;;;;;;21.00;39.80;;;;;;8329550;28;19917;-43
2022/12/27 23:46:15;;;;;;;;;;;21.00;39.30;;;;;;8329295;28;19925;-43
2022/12/27 23:50:16;;;;;;;;;;;20.90;39.30;;;;;;8329183;28;19987;-43
2022/12/27 23:54:16;;;;;;;;;;;20.90;39.40;;;;;;8329595;28;19921;-43
2022/12/27 23:58:17;;;;;;;;;;;20.90;39.30;;;;;;8329132;28;19917;-43
